sensor_id;sensor_type;location;lat;lon;timestamp;pressure;altitude;pressure_sealevel;temperature;humidity
42633;BME280;28261;53.304;-6.284;2023-02-28T00:01:10;103202.09;;;5.96;93.82
42633;BME280;28261;53.304;-6.284;2023-02-28T00:03:14;103199.44;;;5.97;93.66
42633;BME280;28261;53.304;-6.284;2023-02-28T00:05:20;103200.34;;;5.99;93.65
42633;BME280;28261;53.304;-6.284;2023-02-28T00:07:24;103197.72;;;5.99;93.83
42633;BME280;28261;53.304;-6.284;2023-02-28T00:09:27;103200.31;;;6.01;93.82
42633;BME280;28261;53.304;-6.284;2023-02-28T00:11:30;103206.44;;;6.04;93.82
42633;BME280;28261;53.304;-6.284;2023-02-28T00:13:36;103200.28;;;6.04;93.62
42633;BME280;28261;53.304;-6.284;2023-02-28T00:15:40;103206.44;;;6.06;93.84
42633;BME280;28261;53.304;-6.284;2023-02-28T00:17:45;103208.19;;;6.05;93.97
42633;BME280;28261;53.304;-6.284;2023-02-28T00:19:49;103198.56;;;6.03;94.22
42633;BME280;28261;53.304;-6.284;2023-02-28T00:21:53;103203.81;;;6.01;94.66
42633;BME280;28261;53.304;-6.284;2023-02-28T00:23:56;103203.84;;;6.03;94.86
42633;BME280;28261;53.304;-6.284;2023-02-28T00:26:00;103202.94;;;6.04;94.59
42633;BME280;28261;53.304;-6.284;2023-02-28T00:28:04;103204.66;;;6.06;94.75
42633;BME280;28261;53.304;-6.284;2023-02-28T00:30:10;103206.41;;;6.07;95.10
42633;BME280;28261;53.304;-6.284;2023-02-28T00:32:14;103209.91;;;6.09;95.43
42633;BME280;28261;53.304;-6.284;2023-02-28T00:34:19;103208.19;;;6.08;95.27
42633;BME280;28261;53.304;-6.284;2023-02-28T00:36:23;103215.16;;;6.09;95.40
42633;BME280;28261;53.304;-6.284;2023-02-28T00:38:26;103221.31;;;6.12;95.62
42633;BME280;28261;53.304;-6.284;2023-02-28T00:40:30;103221.28;;;6.13;96.10
42633;BME280;28261;53.304;-6.284;2023-02-28T00:42:34;103218.66;;;6.13;96.00
42633;BME280;28261;53.304;-6.284;2023-02-28T00:44:37;103213.41;;;6.12;96.17
42633;BME280;28261;53.304;-6.284;2023-02-28T00:46:41;103209.00;;;6.12;96.29
42633;BME280;28261;53.304;-6.284;2023-02-28T00:48:45;103225.69;;;6.09;96.79
42633;BME280;28261;53.304;-6.284;2023-02-28T00:50:50;103220.44;;;6.09;97.20
42633;BME280;28261;53.304;-6.284;2023-02-28T00:52:54;103216.06;;;6.10;97.33
42633;BME280;28261;53.304;-6.284;2023-02-28T00:54:57;103218.69;;;6.12;97.59
42633;BME280;28261;53.304;-6.284;2023-02-28T00:57:01;103209.91;;;6.13;97.29
42633;BME280;28261;53.304;-6.284;2023-02-28T00:59:06;103217.78;;;6.14;97.25
42633;BME280;28261;53.304;-6.284;2023-02-28T01:01:10;103214.25;;;6.15;97.36
42633;BME280;28261;53.304;-6.284;2023-02-28T01:03:14;103216.00;;;6.15;97.75
42633;BME280;28261;53.304;-6.284;2023-02-28T01:05:18;103216.88;;;6.14;97.82
42633;BME280;28261;53.304;-6.284;2023-02-28T01:07:23;103220.41;;;6.16;97.80
42633;BME280;28261;53.304;-6.284;2023-02-28T01:09:28;103223.91;;;6.15;97.88
42633;BME280;28261;53.304;-6.284;2023-02-28T01:11:33;103230.94;;;6.16;97.83
42633;BME280;28261;53.304;-6.284;2023-02-28T01:13:37;103227.44;;;6.15;98.18
42633;BME280;28261;53.304;-6.284;2023-02-28T01:15:49;103224.81;;;6.15;98.10
42633;BME280;28261;53.304;-6.284;2023-02-28T01:17:53;103227.41;;;6.17;98.22
42633;BME280;28261;53.304;-6.284;2023-02-28T01:19:57;103230.06;;;6.17;98.26
42633;BME280;28261;53.304;-6.284;2023-02-28T01:22:01;103228.28;;;6.17;97.94
42633;BME280;28261;53.304;-6.284;2023-02-28T01:24:07;103223.88;;;6.18;97.75
42633;BME280;28261;53.304;-6.284;2023-02-28T01:26:13;103217.72;;;6.19;97.90
42633;BME280;28261;53.304;-6.284;2023-02-28T01:28:16;103217.72;;;6.19;97.73
42633;BME280;28261;53.304;-6.284;2023-02-28T01:30:20;103217.72;;;6.20;97.99
42633;BME280;28261;53.304;-6.284;2023-02-28T01:32:24;103217.69;;;6.22;97.45
42633;BME280;28261;53.304;-6.284;2023-02-28T01:34:28;103220.31;;;6.22;97.36
42633;BME280;28261;53.304;-6.284;2023-02-28T01:36:31;103222.97;;;6.23;97.36
42633;BME280;28261;53.304;-6.284;2023-02-28T01:38:35;103213.31;;;6.24;97.17
42633;BME280;28261;53.304;-6.284;2023-02-28T01:40:40;103223.84;;;6.24;96.98
42633;BME280;28261;53.304;-6.284;2023-02-28T01:42:44;103223.84;;;6.24;97.12
42633;BME280;28261;53.304;-6.284;2023-02-28T01:45:02;103221.19;;;6.24;96.85
42633;BME280;28261;53.304;-6.284;2023-02-28T01:47:06;103217.69;;;6.25;96.58
42633;BME280;28261;53.304;-6.284;2023-02-28T01:49:13;103222.09;;;6.23;96.54
42633;BME280;28261;53.304;-6.284;2023-02-28T01:51:22;103226.50;;;6.22;96.72
42633;BME280;28261;53.304;-6.284;2023-02-28T01:53:32;103224.72;;;6.21;96.52
42633;BME280;28261;53.304;-6.284;2023-02-28T01:55:37;103218.59;;;6.21;96.78
42633;BME280;28261;53.304;-6.284;2023-02-28T01:57:46;103227.38;;;6.20;96.62
42633;BME280;28261;53.304;-6.284;2023-02-28T01:59:56;103220.31;;;6.22;96.47
42633;BME280;28261;53.304;-6.284;2023-02-28T02:02:02;103222.09;;;6.23;96.10
42633;BME280;28261;53.304;-6.284;2023-02-28T02:04:06;103225.63;;;6.23;96.28
42633;BME280;28261;53.304;-6.284;2023-02-28T02:06:10;103226.47;;;6.24;96.04
42633;BME280;28261;53.304;-6.284;2023-02-28T02:08:19;103222.09;;;6.23;96.09
42633;BME280;28261;53.304;-6.284;2023-02-28T02:10:29;103226.44;;;6.25;95.74
42633;BME280;28261;53.304;-6.284;2023-02-28T02:12:48;103229.06;;;6.27;96.03
42633;BME280;28261;53.304;-6.284;2023-02-28T02:15:01;103216.78;;;6.29;95.80
42633;BME280;28261;53.304;-6.284;2023-02-28T02:17:16;103215.91;;;6.30;95.88
42633;BME280;28261;53.304;-6.284;2023-02-28T02:19:41;103215.88;;;6.32;95.66
42633;BME280;28261;53.304;-6.284;2023-02-28T02:22:12;103215.84;;;6.33;95.61
42633;BME280;28261;53.304;-6.284;2023-02-28T02:24:39;103217.59;;;6.33;95.45
42633;BME280;28261;53.304;-6.284;2023-02-28T02:27:01;103212.34;;;6.31;95.48
42633;BME280;28261;53.304;-6.284;2023-02-28T02:32:02;103223.78;;;6.29;95.79
42633;BME280;28261;53.304;-6.284;2023-02-28T02:34:28;103227.31;;;6.26;95.85
42633;BME280;28261;53.304;-6.284;2023-02-28T02:36:37;103222.03;;;6.26;95.61
42633;BME280;28261;53.304;-6.284;2023-02-28T02:38:48;103220.31;;;6.25;95.94
42633;BME280;28261;53.304;-6.284;2023-02-28T02:40:58;103223.84;;;6.24;95.75
42633;BME280;28261;53.304;-6.284;2023-02-28T02:43:10;103224.72;;;6.23;95.96
42633;BME280;28261;53.304;-6.284;2023-02-28T02:45:21;103221.22;;;6.22;96.14
42633;BME280;28261;53.304;-6.284;2023-02-28T02:47:29;103222.97;;;6.20;95.90
42633;BME280;28261;53.304;-6.284;2023-02-28T02:49:36;103226.50;;;6.18;96.16
42633;BME280;28261;53.304;-6.284;2023-02-28T02:51:42;103226.53;;;6.16;96.25
42633;BME280;28261;53.304;-6.284;2023-02-28T02:53:49;103223.03;;;6.16;96.67
42633;BME280;28261;53.304;-6.284;2023-02-28T02:55:55;103216.88;;;6.17;96.38
42633;BME280;28261;53.304;-6.284;2023-02-28T02:58:03;103223.88;;;6.18;97.00
42633;BME280;28261;53.304;-6.284;2023-02-28T03:00:09;103213.34;;;6.18;96.49
42633;BME280;28261;53.304;-6.284;2023-02-28T03:02:15;103209.84;;;6.16;96.76
42633;BME280;28261;53.304;-6.284;2023-02-28T03:04:24;103211.63;;;6.15;96.69
42633;BME280;28261;53.304;-6.284;2023-02-28T03:06:31;103209.00;;;6.15;96.64
42633;BME280;28261;53.304;-6.284;2023-02-28T03:08:36;103208.09;;;6.15;97.05
42633;BME280;28261;53.304;-6.284;2023-02-28T03:10:42;103208.13;;;6.13;97.05
42633;BME280;28261;53.304;-6.284;2023-02-28T03:15:27;103213.41;;;6.12;97.05
42633;BME280;28261;53.304;-6.284;2023-02-28T03:17:49;103211.66;;;6.10;96.80
42633;BME280;28261;53.304;-6.284;2023-02-28T03:20:06;103217.78;;;6.09;97.24
42633;BME280;28261;53.304;-6.284;2023-02-28T03:22:27;103216.06;;;6.10;97.02
42633;BME280;28261;53.304;-6.284;2023-02-28T03:24:36;103220.44;;;6.09;97.26
42633;BME280;28261;53.304;-6.284;2023-02-28T03:26:49;103218.72;;;6.08;97.35
42633;BME280;28261;53.304;-6.284;2023-02-28T03:29:02;103226.59;;;6.10;97.25
42633;BME280;28261;53.304;-6.284;2023-02-28T03:31:12;103223.97;;;6.08;97.32
42633;BME280;28261;53.304;-6.284;2023-02-28T03:33:21;103219.56;;;6.09;97.26
42633;BME280;28261;53.304;-6.284;2023-02-28T03:35:31;103224.84;;;6.09;96.96
42633;BME280;28261;53.304;-6.284;2023-02-28T03:37:40;103220.44;;;6.09;96.92
42633;BME280;28261;53.304;-6.284;2023-02-28T03:39:49;103228.34;;;6.09;97.11
42633;BME280;28261;53.304;-6.284;2023-02-28T03:41:58;103232.72;;;6.10;97.33
42633;BME280;28261;53.304;-6.284;2023-02-28T03:44:06;103230.97;;;6.11;97.14
42633;BME280;28261;53.304;-6.284;2023-02-28T03:46:15;103233.63;;;6.11;97.20
42633;BME280;28261;53.304;-6.284;2023-02-28T03:48:28;103228.34;;;6.13;97.29
42633;BME280;28261;53.304;-6.284;2023-02-28T03:50:36;103226.56;;;6.13;97.01
42633;BME280;28261;53.304;-6.284;2023-02-28T03:52:47;103229.19;;;6.13;97.17
42633;BME280;28261;53.304;-6.284;2023-02-28T03:54:53;103226.56;;;6.13;96.95
42633;BME280;28261;53.304;-6.284;2023-02-28T03:57:04;103236.22;;;6.13;96.92
42633;BME280;28261;53.304;-6.284;2023-02-28T03:59:13;103238.88;;;6.13;96.81
42633;BME280;28261;53.304;-6.284;2023-02-28T04:01:21;103240.59;;;6.12;96.81
42633;BME280;28261;53.304;-6.284;2023-02-28T04:03:27;103233.63;;;6.11;96.94
42633;BME280;28261;53.304;-6.284;2023-02-28T04:05:31;103242.38;;;6.12;96.85
42633;BME280;28261;53.304;-6.284;2023-02-28T04:07:35;103237.97;;;6.14;97.07
42633;BME280;28261;53.304;-6.284;2023-02-28T04:09:40;103231.81;;;6.15;96.70
42633;BME280;28261;53.304;-6.284;2023-02-28T04:11:46;103233.53;;;6.19;96.83
42633;BME280;28261;53.304;-6.284;2023-02-28T04:13:53;103230.88;;;6.20;96.69
42633;BME280;28261;53.304;-6.284;2023-02-28T04:15:56;103235.22;;;6.24;96.58
42633;BME280;28261;53.304;-6.284;2023-02-28T04:18:00;103230.84;;;6.25;96.69
42633;BME280;28261;53.304;-6.284;2023-02-28T04:20:05;103238.75;;;6.26;96.41
42633;BME280;28261;53.304;-6.284;2023-02-28T04:22:11;103236.09;;;6.28;96.50
42633;BME280;28261;53.304;-6.284;2023-02-28T04:24:17;103241.38;;;6.28;96.50
42633;BME280;28261;53.304;-6.284;2023-02-28T04:26:22;103236.06;;;6.30;96.36
42633;BME280;28261;53.304;-6.284;2023-02-28T04:28:26;103246.63;;;6.30;96.84
42633;BME280;28261;53.304;-6.284;2023-02-28T04:30:29;103249.25;;;6.30;96.97
42633;BME280;28261;53.304;-6.284;2023-02-28T04:32:34;103243.13;;;6.29;97.01
42633;BME280;28261;53.304;-6.284;2023-02-28T04:34:38;103255.41;;;6.30;96.67
42633;BME280;28261;53.304;-6.284;2023-02-28T04:36:42;103258.91;;;6.31;97.28
42633;BME280;28261;53.304;-6.284;2023-02-28T04:38:45;103258.03;;;6.30;96.94
42633;BME280;28261;53.304;-6.284;2023-02-28T04:40:49;103256.28;;;6.31;96.94
42633;BME280;28261;53.304;-6.284;2023-02-28T04:42:54;103249.22;;;6.31;96.86
42633;BME280;28261;53.304;-6.284;2023-02-28T04:44:58;103257.13;;;6.31;96.88
42633;BME280;28261;53.304;-6.284;2023-02-28T04:47:01;103266.78;;;6.32;96.86
42633;BME280;28261;53.304;-6.284;2023-02-28T04:49:05;103263.31;;;6.30;96.95
42633;BME280;28261;53.304;-6.284;2023-02-28T04:51:10;103259.81;;;6.28;97.09
42633;BME280;28261;53.304;-6.284;2023-02-28T04:53:14;103262.47;;;6.26;97.22
42633;BME280;28261;53.304;-6.284;2023-02-28T04:55:17;103262.47;;;6.26;97.74
42633;BME280;28261;53.304;-6.284;2023-02-28T04:57:21;103272.13;;;6.28;97.47
42633;BME280;28261;53.304;-6.284;2023-02-28T04:59:26;103273.00;;;6.25;97.88
42633;BME280;28261;53.304;-6.284;2023-02-28T05:01:32;103268.63;;;6.24;97.90
42633;BME280;28261;53.304;-6.284;2023-02-28T05:03:36;103265.97;;;6.24;97.99
42633;BME280;28261;53.304;-6.284;2023-02-28T05:05:40;103273.00;;;6.25;98.50
42633;BME280;28261;53.304;-6.284;2023-02-28T05:07:44;103272.09;;;6.26;98.90
42633;BME280;28261;53.304;-6.284;2023-02-28T05:09:48;103258.94;;;6.26;98.50
42633;BME280;28261;53.304;-6.284;2023-02-28T05:11:52;103270.38;;;6.23;98.32
42633;BME280;28261;53.304;-6.284;2023-02-28T05:13:55;103266.00;;;6.18;98.70
42633;BME280;28261;53.304;-6.284;2023-02-28T05:16:00;103266.94;;;6.12;99.15
42633;BME280;28261;53.304;-6.284;2023-02-28T05:18:04;103274.00;;;6.05;99.56
42633;BME280;28261;53.304;-6.284;2023-02-28T05:20:09;103278.47;;;5.92;100.00
42633;BME280;28261;53.304;-6.284;2023-02-28T05:22:17;103277.72;;;5.69;100.00
42633;BME280;28261;53.304;-6.284;2023-02-28T05:24:21;103288.38;;;5.47;100.00
42633;BME280;28261;53.304;-6.284;2023-02-28T05:26:26;103282.28;;;5.28;100.00
42633;BME280;28261;53.304;-6.284;2023-02-28T05:28:30;103287.59;;;5.16;100.00
42633;BME280;28261;53.304;-6.284;2023-02-28T05:30:33;103288.50;;;5.05;100.00
42633;BME280;28261;53.304;-6.284;2023-02-28T05:32:39;103294.66;;;4.98;100.00
42633;BME280;28261;53.304;-6.284;2023-02-28T05:34:45;103299.91;;;4.92;100.00
42633;BME280;28261;53.304;-6.284;2023-02-28T05:36:48;103299.91;;;4.90;100.00
42633;BME280;28261;53.304;-6.284;2023-02-28T05:38:52;103299.06;;;4.88;100.00
42633;BME280;28261;53.304;-6.284;2023-02-28T05:40:55;103301.69;;;4.85;100.00
42633;BME280;28261;53.304;-6.284;2023-02-28T05:42:59;103301.69;;;4.82;100.00
42633;BME280;28261;53.304;-6.284;2023-02-28T05:45:03;103306.94;;;4.84;100.00
42633;BME280;28261;53.304;-6.284;2023-02-28T05:47:07;103304.31;;;4.87;100.00
42633;BME280;28261;53.304;-6.284;2023-02-28T05:49:12;103312.19;;;4.91;100.00
42633;BME280;28261;53.304;-6.284;2023-02-28T05:51:16;103310.44;;;4.94;100.00
42633;BME280;28261;53.304;-6.284;2023-02-28T05:53:20;103311.31;;;4.96;100.00
42633;BME280;28261;53.304;-6.284;2023-02-28T05:55:24;103301.66;;;4.93;100.00
42633;BME280;28261;53.304;-6.284;2023-02-28T05:57:27;103299.03;;;4.91;100.00
42633;BME280;28261;53.304;-6.284;2023-02-28T05:59:31;103301.66;;;4.93;100.00
42633;BME280;28261;53.304;-6.284;2023-02-28T06:01:36;103306.03;;;4.96;100.00
42633;BME280;28261;53.304;-6.284;2023-02-28T06:03:40;103299.91;;;4.95;100.00
42633;BME280;28261;53.304;-6.284;2023-02-28T06:05:45;103302.53;;;4.98;100.00
42633;BME280;28261;53.304;-6.284;2023-02-28T06:07:49;103307.78;;;5.01;100.00
42633;BME280;28261;53.304;-6.284;2023-02-28T06:09:52;103304.25;;;5.05;100.00
42633;BME280;28261;53.304;-6.284;2023-02-28T06:11:57;103303.38;;;5.09;100.00
42633;BME280;28261;53.304;-6.284;2023-02-28T06:14:02;103312.13;;;5.15;100.00
42633;BME280;28261;53.304;-6.284;2023-02-28T06:16:06;103312.13;;;5.18;100.00
42633;BME280;28261;53.304;-6.284;2023-02-28T06:18:10;103305.97;;;5.20;100.00
42633;BME280;28261;53.304;-6.284;2023-02-28T06:20:13;103303.34;;;5.22;100.00
42633;BME280;28261;53.304;-6.284;2023-02-28T06:22:18;103311.22;;;5.23;100.00
42633;BME280;28261;53.304;-6.284;2023-02-28T06:24:23;103305.09;;;5.26;100.00
42633;BME280;28261;53.304;-6.284;2023-02-28T06:26:27;103305.97;;;5.27;100.00
42633;BME280;28261;53.304;-6.284;2023-02-28T06:28:30;103306.84;;;5.27;100.00
42633;BME280;28261;53.304;-6.284;2023-02-28T06:30:34;103309.47;;;5.27;100.00
42633;BME280;28261;53.304;-6.284;2023-02-28T06:32:38;103308.59;;;5.28;100.00
42633;BME280;28261;53.304;-6.284;2023-02-28T06:34:41;103295.44;;;5.28;100.00
42633;BME280;28261;53.304;-6.284;2023-02-28T06:36:45;103297.22;;;5.29;100.00
42633;BME280;28261;53.304;-6.284;2023-02-28T06:38:50;103306.81;;;5.30;100.00
42633;BME280;28261;53.304;-6.284;2023-02-28T06:40:58;103305.94;;;5.31;100.00
42633;BME280;28261;53.304;-6.284;2023-02-28T06:43:02;103320.00;;;5.32;100.00
42633;BME280;28261;53.304;-6.284;2023-02-28T06:45:06;103317.34;;;5.33;100.00
42633;BME280;28261;53.304;-6.284;2023-02-28T06:47:11;103324.34;;;5.33;100.00
42633;BME280;28261;53.304;-6.284;2023-02-28T06:49:15;103327.88;;;5.33;100.00
42633;BME280;28261;53.304;-6.284;2023-02-28T06:51:20;103320.84;;;5.34;100.00
42633;BME280;28261;53.304;-6.284;2023-02-28T06:53:26;103331.34;;;5.35;100.00
42633;BME280;28261;53.304;-6.284;2023-02-28T06:55:31;103332.25;;;5.37;100.00
42633;BME280;28261;53.304;-6.284;2023-02-28T06:57:35;103333.97;;;5.37;100.00
42633;BME280;28261;53.304;-6.284;2023-02-28T06:59:38;103343.63;;;5.36;100.00
42633;BME280;28261;53.304;-6.284;2023-02-28T07:01:42;103343.63;;;5.36;100.00
42633;BME280;28261;53.304;-6.284;2023-02-28T07:03:46;103346.28;;;5.36;100.00
42633;BME280;28261;53.304;-6.284;2023-02-28T07:05:54;103345.41;;;5.37;100.00
42633;BME280;28261;53.304;-6.284;2023-02-28T07:07:58;103341.88;;;5.35;100.00
42633;BME280;28261;53.304;-6.284;2023-02-28T07:10:02;103350.66;;;5.34;100.00
42633;BME280;28261;53.304;-6.284;2023-02-28T07:12:07;103348.00;;;5.34;100.00
42633;BME280;28261;53.304;-6.284;2023-02-28T07:14:11;103354.19;;;5.33;100.00
42633;BME280;28261;53.304;-6.284;2023-02-28T07:16:15;103351.53;;;5.36;100.00
42633;BME280;28261;53.304;-6.284;2023-02-28T07:18:19;103355.00;;;5.38;100.00
42633;BME280;28261;53.304;-6.284;2023-02-28T07:20:23;103357.69;;;5.40;100.00
42633;BME280;28261;53.304;-6.284;2023-02-28T07:22:27;103362.03;;;5.41;100.00
42633;BME280;28261;53.304;-6.284;2023-02-28T07:24:30;103360.28;;;5.43;100.00
42633;BME280;28261;53.304;-6.284;2023-02-28T07:26:34;103355.88;;;5.43;100.00
42633;BME280;28261;53.304;-6.284;2023-02-28T07:28:39;103367.28;;;5.46;100.00
42633;BME280;28261;53.304;-6.284;2023-02-28T07:30:44;103361.13;;;5.47;100.00
42633;BME280;28261;53.304;-6.284;2023-02-28T07:32:48;103360.25;;;5.48;100.00
42633;BME280;28261;53.304;-6.284;2023-02-28T07:34:51;103359.38;;;5.49;100.00
42633;BME280;28261;53.304;-6.284;2023-02-28T07:36:55;103364.66;;;5.49;100.00
42633;BME280;28261;53.304;-6.284;2023-02-28T07:39:01;103369.91;;;5.50;100.00
42633;BME280;28261;53.304;-6.284;2023-02-28T07:41:09;103364.66;;;5.49;100.00
42633;BME280;28261;53.304;-6.284;2023-02-28T07:43:13;103361.16;;;5.50;100.00
42633;BME280;28261;53.304;-6.284;2023-02-28T07:45:18;103368.13;;;5.51;100.00
42633;BME280;28261;53.304;-6.284;2023-02-28T07:47:22;103361.13;;;5.53;100.00
42633;BME280;28261;53.304;-6.284;2023-02-28T07:49:26;103368.16;;;5.54;100.00
42633;BME280;28261;53.304;-6.284;2023-02-28T07:51:30;103378.69;;;5.54;100.00
42633;BME280;28261;53.304;-6.284;2023-02-28T07:53:34;103379.59;;;5.37;100.00
42633;BME280;28261;53.304;-6.284;2023-02-28T07:55:37;103384.88;;;5.20;100.00
42633;BME280;28261;53.304;-6.284;2023-02-28T07:57:41;103392.81;;;5.03;100.00
42633;BME280;28261;53.304;-6.284;2023-02-28T07:59:45;103386.66;;;4.92;100.00
42633;BME280;28261;53.304;-6.284;2023-02-28T08:01:50;103387.53;;;4.88;100.00
42633;BME280;28261;53.304;-6.284;2023-02-28T08:03:55;103388.41;;;4.79;100.00
42633;BME280;28261;53.304;-6.284;2023-02-28T08:05:59;103391.06;;;4.76;100.00
42633;BME280;28261;53.304;-6.284;2023-02-28T08:08:04;103395.41;;;4.72;100.00
42633;BME280;28261;53.304;-6.284;2023-02-28T08:10:08;103403.31;;;4.71;100.00
42633;BME280;28261;53.304;-6.284;2023-02-28T08:12:12;103398.06;;;4.69;100.00
42633;BME280;28261;53.304;-6.284;2023-02-28T08:14:15;103402.41;;;4.67;100.00
42633;BME280;28261;53.304;-6.284;2023-02-28T08:16:19;103407.66;;;4.66;100.00
42633;BME280;28261;53.304;-6.284;2023-02-28T08:18:25;103400.69;;;4.65;100.00
42633;BME280;28261;53.304;-6.284;2023-02-28T08:20:29;103408.56;;;4.66;100.00
42633;BME280;28261;53.304;-6.284;2023-02-28T08:22:33;103401.56;;;4.65;100.00
42633;BME280;28261;53.304;-6.284;2023-02-28T08:24:36;103406.81;;;4.65;100.00
42633;BME280;28261;53.304;-6.284;2023-02-28T08:26:40;103408.56;;;4.68;100.00
42633;BME280;28261;53.304;-6.284;2023-02-28T08:28:44;103406.78;;;4.71;100.00
42633;BME280;28261;53.304;-6.284;2023-02-28T08:30:48;103415.56;;;4.73;100.00
42633;BME280;28261;53.304;-6.284;2023-02-28T08:32:52;103412.06;;;4.78;100.00
42633;BME280;28261;53.304;-6.284;2023-02-28T08:34:58;103411.19;;;4.82;100.00
42633;BME280;28261;53.304;-6.284;2023-02-28T08:37:02;103410.31;;;4.86;100.00
42633;BME280;28261;53.304;-6.284;2023-02-28T08:39:06;103404.19;;;4.87;100.00
42633;BME280;28261;53.304;-6.284;2023-02-28T08:41:11;103399.81;;;4.86;100.00
42633;BME280;28261;53.304;-6.284;2023-02-28T08:43:15;103408.56;;;4.85;100.00
42633;BME280;28261;53.304;-6.284;2023-02-28T08:45:18;103411.19;;;4.86;100.00
42633;BME280;28261;53.304;-6.284;2023-02-28T08:47:22;103407.69;;;4.87;100.00
42633;BME280;28261;53.304;-6.284;2023-02-28T08:49:26;103407.69;;;4.97;100.00
42633;BME280;28261;53.304;-6.284;2023-02-28T08:51:32;103405.06;;;5.01;100.00
42633;BME280;28261;53.304;-6.284;2023-02-28T08:53:35;103409.44;;;5.04;100.00
42633;BME280;28261;53.304;-6.284;2023-02-28T08:55:39;103412.06;;;5.10;100.00
42633;BME280;28261;53.304;-6.284;2023-02-28T08:57:43;103416.47;;;5.14;100.00
42633;BME280;28261;53.304;-6.284;2023-02-28T08:59:47;103412.94;;;5.20;100.00
42633;BME280;28261;53.304;-6.284;2023-02-28T09:01:50;103423.44;;;5.21;100.00
42633;BME280;28261;53.304;-6.284;2023-02-28T09:03:55;103421.69;;;5.23;100.00
42633;BME280;28261;53.304;-6.284;2023-02-28T09:06:00;103421.72;;;5.25;100.00
42633;BME280;28261;53.304;-6.284;2023-02-28T09:08:05;103422.56;;;5.25;100.00
42633;BME280;28261;53.304;-6.284;2023-02-28T09:10:09;103422.56;;;5.33;100.00
42633;BME280;28261;53.304;-6.284;2023-02-28T09:12:13;103420.81;;;5.32;100.00
42633;BME280;28261;53.304;-6.284;2023-02-28T09:14:16;103426.06;;;5.35;100.00
42633;BME280;28261;53.304;-6.284;2023-02-28T09:16:21;103422.53;;;5.39;100.00
42633;BME280;28261;53.304;-6.284;2023-02-28T09:18:25;103414.66;;;5.44;99.55
42633;BME280;28261;53.304;-6.284;2023-02-28T09:20:28;103426.91;;;5.45;98.63
42633;BME280;28261;53.304;-6.284;2023-02-28T09:22:32;103418.16;;;5.46;98.77
42633;BME280;28261;53.304;-6.284;2023-02-28T09:24:37;103421.66;;;5.45;97.15
42633;BME280;28261;53.304;-6.284;2023-02-28T09:26:41;103435.72;;;5.44;97.24
42633;BME280;28261;53.304;-6.284;2023-02-28T09:29:04;103428.66;;;5.54;97.85
42633;BME280;28261;53.304;-6.284;2023-02-28T09:31:12;103431.25;;;5.66;96.65
42633;BME280;28261;53.304;-6.284;2023-02-28T09:33:17;103440.03;;;5.71;95.81
42633;BME280;28261;53.304;-6.284;2023-02-28T09:35:23;103426.84;;;5.70;95.17
42633;BME280;28261;53.304;-6.284;2023-02-28T09:37:28;103436.50;;;5.75;94.72
42633;BME280;28261;53.304;-6.284;2023-02-28T09:39:33;103432.97;;;5.78;94.46
42633;BME280;28261;53.304;-6.284;2023-02-28T09:41:41;103430.34;;;5.83;93.38
42633;BME280;28261;53.304;-6.284;2023-02-28T09:43:54;103431.22;;;5.82;93.27
42633;BME280;28261;53.304;-6.284;2023-02-28T09:46:02;103431.19;;;5.85;91.16
42633;BME280;28261;53.304;-6.284;2023-02-28T09:48:14;103429.47;;;5.78;90.51
42633;BME280;28261;53.304;-6.284;2023-02-28T09:50:28;103436.47;;;5.80;91.05
42633;BME280;28261;53.304;-6.284;2023-02-28T09:52:36;103435.56;;;5.92;91.25
42633;BME280;28261;53.304;-6.284;2023-02-28T09:54:41;103426.78;;;6.01;89.96
42633;BME280;28261;53.304;-6.284;2023-02-28T09:56:49;103425.91;;;6.00;90.15
42633;BME280;28261;53.304;-6.284;2023-02-28T09:59:00;103420.63;;;6.03;90.25
42633;BME280;28261;53.304;-6.284;2023-02-28T10:01:17;103428.50;;;6.08;90.23
42633;BME280;28261;53.304;-6.284;2023-02-28T10:03:26;103430.25;;;6.10;90.04
42633;BME280;28261;53.304;-6.284;2023-02-28T10:05:36;103421.41;;;6.24;90.79
42633;BME280;28261;53.304;-6.284;2023-02-28T10:08:01;103424.00;;;6.29;88.15
42633;BME280;28261;53.304;-6.284;2023-02-28T10:10:20;103421.44;;;6.15;88.14
42633;BME280;28261;53.304;-6.284;2023-02-28T10:12:28;103423.22;;;6.13;88.13
42633;BME280;28261;53.304;-6.284;2023-02-28T10:14:34;103421.47;;;6.12;88.49
42633;BME280;28261;53.304;-6.284;2023-02-28T10:16:41;103426.72;;;6.13;88.76
42633;BME280;28261;53.304;-6.284;2023-02-28T10:18:52;103425.84;;;6.16;88.83
42633;BME280;28261;53.304;-6.284;2023-02-28T10:20:59;103414.44;;;6.17;88.03
42633;BME280;28261;53.304;-6.284;2023-02-28T10:23:09;103424.06;;;6.21;88.12
42633;BME280;28261;53.304;-6.284;2023-02-28T10:25:18;103426.69;;;6.22;88.00
42633;BME280;28261;53.304;-6.284;2023-02-28T10:27:24;103424.03;;;6.24;87.20
42633;BME280;28261;53.304;-6.284;2023-02-28T10:29:32;103430.16;;;6.26;87.21
42633;BME280;28261;53.304;-6.284;2023-02-28T10:31:38;103430.19;;;6.28;86.70
42633;BME280;28261;53.304;-6.284;2023-02-28T10:33:43;103431.00;;;6.31;86.29
42633;BME280;28261;53.304;-6.284;2023-02-28T10:35:48;103430.97;;;6.39;85.92
42633;BME280;28261;53.304;-6.284;2023-02-28T10:37:55;103438.84;;;6.42;85.73
42633;BME280;28261;53.304;-6.284;2023-02-28T10:40:00;103437.09;;;6.46;85.13
42633;BME280;28261;53.304;-6.284;2023-02-28T10:42:04;103430.13;;;6.38;84.20
42633;BME280;28261;53.304;-6.284;2023-02-28T10:44:20;103436.25;;;6.33;84.19
42633;BME280;28261;53.304;-6.284;2023-02-28T10:46:29;103432.78;;;6.26;84.44
42633;BME280;28261;53.304;-6.284;2023-02-28T10:48:36;103438.94;;;6.28;84.46
42633;BME280;28261;53.304;-6.284;2023-02-28T10:50:44;103427.56;;;6.21;82.81
42633;BME280;28261;53.304;-6.284;2023-02-28T10:52:49;103422.38;;;6.01;81.79
42633;BME280;28261;53.304;-6.284;2023-02-28T10:55:14;103441.72;;;5.85;83.13
42633;BME280;28261;53.304;-6.284;2023-02-28T10:57:21;103438.25;;;5.81;83.29
42633;BME280;28261;53.304;-6.284;2023-02-28T10:59:29;103439.06;;;5.86;84.04
42633;BME280;28261;53.304;-6.284;2023-02-28T11:01:40;103436.44;;;6.00;84.14